IBE05HL LPPR-LEMD
Flight info
| Callsign | IBE05HL |
|---|---|
| Flight time | 0h 50m |
| Altitude | 30000 |
| Route | BELDU CANAR ADORO L155 ZMR |
| Aircraft | A320/M-SDE3FGHIRWY/LB1 |
Departure
| Time | 2026-05-08 07:39 |
|---|---|
| Airport | Francisco de Sá Carneiro Airport (LPPR) |
Arrival
| Time | 2026-05-08 08:29 |
|---|---|
| Airport | Adolfo Suárez Madrid–Barajas Airport (LEMD) |
| Time | Latitude | Longitude | Altitude | Speed | Heading |
|---|---|---|---|---|---|
| 2026-05-08 07:21 | 41.23504 | -8.67283 | 245 ft | 0 kts | 114° |
| 2026-05-08 07:30 | 41.23507 | -8.67291 | 245 ft | 4 kts | 112° |
| 2026-05-08 07:30 | 41.23515 | -8.67324 | 243 ft | 4 kts | 96° |
| 2026-05-08 07:30 | 41.23514 | -8.67358 | 242 ft | 4 kts | 68° |
| 2026-05-08 07:31 | 41.23500 | -8.67383 | 240 ft | 4 kts | 21° |
| 2026-05-08 07:31 | 41.23485 | -8.67387 | 240 ft | 1 kts | 348° |
| 2026-05-08 07:33 | 41.23494 | -8.67390 | 239 ft | 1 kts | 348° |
| 2026-05-08 07:33 | 41.23514 | -8.67395 | 239 ft | 5 kts | 348° |
| 2026-05-08 07:34 | 41.23545 | -8.67403 | 239 ft | 5 kts | 348° |
| 2026-05-08 07:34 | 41.23578 | -8.67412 | 238 ft | 5 kts | 348° |
| 2026-05-08 07:34 | 41.23657 | -8.67431 | 238 ft | 22 kts | 350° |
| 2026-05-08 07:34 | 41.23814 | -8.67471 | 239 ft | 24 kts | 348° |
| 2026-05-08 07:35 | 41.23983 | -8.67517 | 238 ft | 26 kts | 349° |
| 2026-05-08 07:35 | 41.24163 | -8.67565 | 238 ft | 27 kts | 348° |
| 2026-05-08 07:35 | 41.24322 | -8.67703 | 230 ft | 30 kts | 339° |
| 2026-05-08 07:35 | 41.24532 | -8.67768 | 218 ft | 29 kts | 348° |
| 2026-05-08 07:36 | 41.24707 | -8.67818 | 212 ft | 24 kts | 346° |
| 2026-05-08 07:36 | 41.24878 | -8.67908 | 201 ft | 29 kts | 339° |
| 2026-05-08 07:36 | 41.25041 | -8.67956 | 197 ft | 18 kts | 349° |
| 2026-05-08 07:36 | 41.25181 | -8.67992 | 194 ft | 23 kts | 350° |
| 2026-05-08 07:37 | 41.25356 | -8.68036 | 179 ft | 28 kts | 347° |
| 2026-05-08 07:37 | 41.25554 | -8.68093 | 173 ft | 31 kts | 348° |
| 2026-05-08 07:37 | 41.25675 | -8.68220 | 170 ft | 17 kts | 264° |
| 2026-05-08 07:37 | 41.25607 | -8.68321 | 172 ft | 15 kts | 197° |
| 2026-05-08 07:38 | 41.25573 | -8.68323 | 173 ft | 0 kts | 175° |
| 2026-05-08 07:38 | 41.25569 | -8.68323 | 173 ft | 10 kts | 175° |
| 2026-05-08 07:38 | 41.25215 | -8.68231 | 183 ft | 88 kts | 168° |
| 2026-05-08 07:38 | 41.24421 | -8.68026 | 209 ft | 141 kts | 169° |
| 2026-05-08 07:39 | 41.23352 | -8.67804 | 616 ft | 155 kts | 171° |
| 2026-05-08 07:39 | 41.22281 | -8.67551 | 1304 ft | 158 kts | 167° |
| 2026-05-08 07:39 | 41.21170 | -8.67228 | 1827 ft | 172 kts | 168° |
| 2026-05-08 07:39 | 41.19921 | -8.66882 | 2173 ft | 195 kts | 168° |
| 2026-05-08 07:40 | 41.18507 | -8.66497 | 2520 ft | 220 kts | 168° |
| 2026-05-08 07:40 | 41.16922 | -8.66072 | 2988 ft | 244 kts | 168° |
| 2026-05-08 07:40 | 41.15211 | -8.65619 | 3739 ft | 255 kts | 168° |
| 2026-05-08 07:40 | 41.13456 | -8.65158 | 4661 ft | 259 kts | 169° |
| 2026-05-08 07:41 | 41.11678 | -8.64695 | 5577 ft | 262 kts | 168° |
| 2026-05-08 07:41 | 41.09956 | -8.63876 | 6437 ft | 267 kts | 145° |
| 2026-05-08 07:41 | 41.08753 | -8.62058 | 7290 ft | 271 kts | 115° |
| 2026-05-08 07:41 | 41.08413 | -8.59587 | 8143 ft | 274 kts | 84° |
| 2026-05-08 07:42 | 41.08743 | -8.57084 | 9014 ft | 277 kts | 78° |
| 2026-05-08 07:42 | 41.09125 | -8.54562 | 9854 ft | 280 kts | 78° |
| 2026-05-08 07:42 | 41.09528 | -8.51990 | 10414 ft | 296 kts | 76° |
| 2026-05-08 07:42 | 41.10216 | -8.49312 | 10701 ft | 319 kts | 65° |
| 2026-05-08 07:43 | 41.11216 | -8.46610 | 11103 ft | 335 kts | 64° |
| 2026-05-08 07:43 | 41.12285 | -8.43712 | 11810 ft | 341 kts | 64° |
| 2026-05-08 07:43 | 41.13306 | -8.40896 | 12534 ft | 345 kts | 64° |
| 2026-05-08 07:43 | 41.14344 | -8.38008 | 13238 ft | 348 kts | 64° |
| 2026-05-08 07:44 | 41.15403 | -8.35053 | 13937 ft | 352 kts | 64° |
| 2026-05-08 07:44 | 41.16461 | -8.32101 | 14613 ft | 356 kts | 64° |
| 2026-05-08 07:44 | 41.17531 | -8.29116 | 15279 ft | 360 kts | 64° |
| 2026-05-08 07:44 | 41.18613 | -8.26108 | 15901 ft | 364 kts | 64° |
| 2026-05-08 07:45 | 41.19696 | -8.23103 | 16515 ft | 367 kts | 64° |
| 2026-05-08 07:45 | 41.20803 | -8.20030 | 17127 ft | 370 kts | 64° |
| 2026-05-08 07:45 | 41.21914 | -8.16930 | 17740 ft | 373 kts | 64° |
| 2026-05-08 07:45 | 41.23033 | -8.13799 | 18318 ft | 376 kts | 64° |
| 2026-05-08 07:46 | 41.24158 | -8.10647 | 18880 ft | 379 kts | 64° |
| 2026-05-08 07:46 | 41.25291 | -8.07475 | 19424 ft | 382 kts | 64° |
| 2026-05-08 07:46 | 41.26437 | -8.04268 | 19949 ft | 386 kts | 64° |
| 2026-05-08 07:46 | 41.27590 | -8.01034 | 20462 ft | 389 kts | 64° |
| 2026-05-08 07:47 | 41.28754 | -7.97771 | 20971 ft | 392 kts | 64° |
| 2026-05-08 07:47 | 41.29926 | -7.94482 | 21430 ft | 395 kts | 64° |
| 2026-05-08 07:47 | 41.31110 | -7.91158 | 21873 ft | 400 kts | 65° |
| 2026-05-08 07:47 | 41.32317 | -7.87757 | 22329 ft | 403 kts | 65° |
| 2026-05-08 07:48 | 41.33514 | -7.84378 | 22777 ft | 406 kts | 65° |
| 2026-05-08 07:48 | 41.34720 | -7.80955 | 23199 ft | 410 kts | 65° |
| 2026-05-08 07:48 | 41.35416 | -7.78621 | 23485 ft | 411 kts | 72° |
| 2026-05-08 07:48 | 41.36102 | -7.74910 | 23902 ft | 414 kts | 81° |
| 2026-05-08 07:49 | 41.36550 | -7.69859 | 24522 ft | 415 kts | 83° |
| 2026-05-08 07:49 | 41.36881 | -7.66037 | 24921 ft | 418 kts | 83° |
| 2026-05-08 07:49 | 41.37223 | -7.62179 | 25293 ft | 421 kts | 83° |
| 2026-05-08 07:49 | 41.37573 | -7.58309 | 25687 ft | 423 kts | 83° |
| 2026-05-08 07:50 | 41.37811 | -7.55676 | 25939 ft | 424 kts | 83° |
| 2026-05-08 07:50 | 41.38275 | -7.50493 | 26407 ft | 427 kts | 83° |
| 2026-05-08 07:50 | 41.38507 | -7.47883 | 26660 ft | 429 kts | 83° |
| 2026-05-08 07:50 | 41.38853 | -7.43939 | 27051 ft | 430 kts | 83° |
| 2026-05-08 07:51 | 41.39198 | -7.39969 | 27413 ft | 432 kts | 83° |
| 2026-05-08 07:51 | 41.39540 | -7.35991 | 27756 ft | 434 kts | 83° |
| 2026-05-08 07:51 | 41.39882 | -7.31979 | 28087 ft | 436 kts | 83° |
| 2026-05-08 07:51 | 41.40223 | -7.27960 | 28390 ft | 438 kts | 83° |
| 2026-05-08 07:52 | 41.40564 | -7.23927 | 28708 ft | 440 kts | 83° |
| 2026-05-08 07:52 | 41.40908 | -7.19861 | 29002 ft | 442 kts | 83° |
| 2026-05-08 07:52 | 41.41255 | -7.15792 | 29284 ft | 444 kts | 83° |
| 2026-05-08 07:52 | 41.41603 | -7.11697 | 29559 ft | 445 kts | 83° |
| 2026-05-08 07:53 | 41.41950 | -7.07586 | 29825 ft | 448 kts | 83° |
| 2026-05-08 07:53 | 41.42293 | -7.03460 | 29977 ft | 448 kts | 84° |
| 2026-05-08 07:53 | 41.42630 | -6.99362 | 30008 ft | 443 kts | 84° |
| 2026-05-08 07:54 | 41.43290 | -6.91253 | 30016 ft | 438 kts | 84° |
| 2026-05-08 07:54 | 41.43945 | -6.83196 | 30004 ft | 437 kts | 84° |
| 2026-05-08 07:55 | 41.44603 | -6.75157 | 30004 ft | 436 kts | 84° |
| 2026-05-08 07:55 | 41.45250 | -6.67111 | 30005 ft | 436 kts | 84° |
| 2026-05-08 07:56 | 41.45891 | -6.59067 | 30012 ft | 436 kts | 84° |
| 2026-05-08 07:56 | 41.46527 | -6.51034 | 30002 ft | 436 kts | 84° |
| 2026-05-08 07:57 | 41.47155 | -6.42986 | 29996 ft | 436 kts | 84° |
| 2026-05-08 07:57 | 41.47775 | -6.34933 | 29993 ft | 437 kts | 84° |
| 2026-05-08 07:58 | 41.48391 | -6.26874 | 29995 ft | 437 kts | 84° |
| 2026-05-08 07:58 | 41.49006 | -6.18805 | 29997 ft | 437 kts | 84° |
| 2026-05-08 07:59 | 41.49619 | -6.10744 | 29997 ft | 437 kts | 84° |
| 2026-05-08 07:59 | 41.50221 | -6.02669 | 29997 ft | 437 kts | 84° |
| 2026-05-08 08:00 | 41.50811 | -5.94648 | 29997 ft | 437 kts | 84° |
| 2026-05-08 08:00 | 41.51407 | -5.86525 | 29999 ft | 437 kts | 84° |
| 2026-05-08 08:01 | 41.51988 | -5.78503 | 29999 ft | 437 kts | 84° |
| 2026-05-08 08:01 | 41.52215 | -5.70367 | 30000 ft | 437 kts | 97° |
| 2026-05-08 08:01 | 41.51593 | -5.66413 | 29999 ft | 436 kts | 108° |
| 2026-05-08 08:02 | 41.50461 | -5.62714 | 29999 ft | 436 kts | 118° |
| 2026-05-08 08:02 | 41.46781 | -5.56337 | 29997 ft | 436 kts | 137° |
| 2026-05-08 08:03 | 41.42316 | -5.50874 | 29994 ft | 436 kts | 137° |
| 2026-05-08 08:03 | 41.37834 | -5.45411 | 29993 ft | 437 kts | 137° |
| 2026-05-08 08:04 | 41.33345 | -5.39944 | 29996 ft | 437 kts | 137° |
| 2026-05-08 08:04 | 41.28861 | -5.34479 | 30001 ft | 437 kts | 137° |
| 2026-05-08 08:05 | 41.24368 | -5.29027 | 29986 ft | 438 kts | 137° |
| 2026-05-08 08:05 | 41.22107 | -5.26292 | 29750 ft | 438 kts | 137° |
| 2026-05-08 08:05 | 41.19853 | -5.23571 | 29494 ft | 439 kts | 137° |
| 2026-05-08 08:05 | 41.17594 | -5.20842 | 29244 ft | 439 kts | 137° |
| 2026-05-08 08:06 | 41.15336 | -5.18112 | 28994 ft | 439 kts | 137° |
| 2026-05-08 08:06 | 41.13082 | -5.15371 | 28744 ft | 440 kts | 137° |
| 2026-05-08 08:06 | 41.10860 | -5.12580 | 28487 ft | 440 kts | 136° |
| 2026-05-08 08:06 | 41.08670 | -5.09744 | 28244 ft | 441 kts | 135° |
| 2026-05-08 08:07 | 41.06503 | -5.06888 | 27991 ft | 440 kts | 135° |
| 2026-05-08 08:07 | 41.04349 | -5.04041 | 27746 ft | 438 kts | 135° |
| 2026-05-08 08:07 | 41.02191 | -5.01202 | 27494 ft | 437 kts | 135° |
| 2026-05-08 08:07 | 41.00030 | -4.98388 | 27251 ft | 435 kts | 135° |
| 2026-05-08 08:08 | 40.97868 | -4.95594 | 26992 ft | 433 kts | 136° |
| 2026-05-08 08:08 | 40.95709 | -4.92816 | 26735 ft | 432 kts | 136° |
| 2026-05-08 08:08 | 40.93558 | -4.90051 | 26493 ft | 430 kts | 136° |
| 2026-05-08 08:08 | 40.91415 | -4.87296 | 26243 ft | 429 kts | 136° |
| 2026-05-08 08:09 | 40.89279 | -4.84548 | 25992 ft | 427 kts | 136° |
| 2026-05-08 08:09 | 40.87157 | -4.81818 | 25742 ft | 426 kts | 136° |
| 2026-05-08 08:09 | 40.85039 | -4.79094 | 25495 ft | 424 kts | 136° |
| 2026-05-08 08:09 | 40.82930 | -4.76386 | 25242 ft | 422 kts | 136° |
| 2026-05-08 08:10 | 40.80827 | -4.73688 | 24985 ft | 421 kts | 136° |
| 2026-05-08 08:10 | 40.78727 | -4.70998 | 24741 ft | 420 kts | 136° |
| 2026-05-08 08:10 | 40.76636 | -4.68320 | 24501 ft | 418 kts | 136° |
| 2026-05-08 08:10 | 40.74553 | -4.65655 | 24240 ft | 417 kts | 136° |
| 2026-05-08 08:11 | 40.72477 | -4.63000 | 23990 ft | 416 kts | 136° |
| 2026-05-08 08:11 | 40.70406 | -4.60356 | 23721 ft | 413 kts | 136° |
| 2026-05-08 08:11 | 40.68411 | -4.57673 | 23308 ft | 404 kts | 128° |
| 2026-05-08 08:11 | 40.66903 | -4.54655 | 23207 ft | 387 kts | 121° |
| 2026-05-08 08:12 | 40.65525 | -4.51640 | 22765 ft | 383 kts | 121° |
| 2026-05-08 08:12 | 40.64158 | -4.48651 | 22234 ft | 381 kts | 121° |
| 2026-05-08 08:12 | 40.62799 | -4.45664 | 21709 ft | 379 kts | 121° |
| 2026-05-08 08:12 | 40.61452 | -4.42699 | 21219 ft | 376 kts | 121° |
| 2026-05-08 08:13 | 40.60116 | -4.39761 | 20731 ft | 373 kts | 121° |
| 2026-05-08 08:13 | 40.58798 | -4.36860 | 20266 ft | 370 kts | 121° |
| 2026-05-08 08:13 | 40.57492 | -4.33981 | 19803 ft | 367 kts | 121° |
| 2026-05-08 08:13 | 40.56189 | -4.31110 | 19331 ft | 364 kts | 121° |
| 2026-05-08 08:14 | 40.54894 | -4.28266 | 18885 ft | 361 kts | 121° |
| 2026-05-08 08:14 | 40.53607 | -4.25442 | 18417 ft | 359 kts | 121° |
| 2026-05-08 08:14 | 40.52327 | -4.22635 | 17945 ft | 357 kts | 121° |
| 2026-05-08 08:14 | 40.51051 | -4.19841 | 17466 ft | 355 kts | 121° |
| 2026-05-08 08:15 | 40.49782 | -4.17066 | 16961 ft | 354 kts | 121° |
| 2026-05-08 08:15 | 40.48514 | -4.14297 | 16490 ft | 353 kts | 121° |
| 2026-05-08 08:15 | 40.47250 | -4.11538 | 15996 ft | 352 kts | 121° |
| 2026-05-08 08:15 | 40.45988 | -4.08783 | 15497 ft | 351 kts | 121° |
| 2026-05-08 08:16 | 40.44733 | -4.06041 | 14994 ft | 350 kts | 121° |
| 2026-05-08 08:16 | 40.43476 | -4.03304 | 14478 ft | 349 kts | 121° |
| 2026-05-08 08:16 | 40.42222 | -4.00582 | 13969 ft | 348 kts | 121° |
| 2026-05-08 08:16 | 40.40970 | -3.97869 | 13454 ft | 347 kts | 121° |
| 2026-05-08 08:17 | 40.39727 | -3.95170 | 12935 ft | 345 kts | 121° |
| 2026-05-08 08:17 | 40.38491 | -3.92483 | 12416 ft | 343 kts | 121° |
| 2026-05-08 08:17 | 40.37260 | -3.89811 | 11884 ft | 342 kts | 121° |
| 2026-05-08 08:17 | 40.36033 | -3.87154 | 11350 ft | 340 kts | 121° |
| 2026-05-08 08:18 | 40.34813 | -3.84513 | 10818 ft | 338 kts | 121° |
| 2026-05-08 08:18 | 40.33608 | -3.81911 | 10587 ft | 327 kts | 121° |
| 2026-05-08 08:18 | 40.32450 | -3.79412 | 10454 ft | 314 kts | 121° |
| 2026-05-08 08:18 | 40.31337 | -3.77012 | 10327 ft | 302 kts | 121° |
| 2026-05-08 08:19 | 40.30269 | -3.74704 | 10189 ft | 291 kts | 121° |
| 2026-05-08 08:19 | 40.29228 | -3.72458 | 9939 ft | 285 kts | 121° |
| 2026-05-08 08:19 | 40.28204 | -3.70252 | 9822 ft | 283 kts | 121° |
| 2026-05-08 08:19 | 40.27178 | -3.68044 | 9580 ft | 284 kts | 121° |
| 2026-05-08 08:20 | 40.26149 | -3.65830 | 9138 ft | 285 kts | 121° |
| 2026-05-08 08:20 | 40.25122 | -3.63616 | 8786 ft | 282 kts | 121° |
| 2026-05-08 08:20 | 40.24103 | -3.61421 | 8299 ft | 279 kts | 121° |
| 2026-05-08 08:20 | 40.23093 | -3.59248 | 7773 ft | 280 kts | 121° |
| 2026-05-08 08:21 | 40.22087 | -3.57089 | 7397 ft | 278 kts | 121° |
| 2026-05-08 08:21 | 40.21077 | -3.54930 | 7042 ft | 275 kts | 121° |
| 2026-05-08 08:21 | 40.20083 | -3.52805 | 6648 ft | 274 kts | 121° |
| 2026-05-08 08:21 | 40.19102 | -3.50709 | 6446 ft | 264 kts | 121° |
| 2026-05-08 08:22 | 40.18270 | -3.48629 | 6285 ft | 254 kts | 107° |
| 2026-05-08 08:22 | 40.18119 | -3.46381 | 6064 ft | 246 kts | 81° |
| 2026-05-08 08:22 | 40.18687 | -3.44278 | 5700 ft | 248 kts | 57° |
| 2026-05-08 08:22 | 40.19858 | -3.42632 | 5305 ft | 248 kts | 41° |
| 2026-05-08 08:23 | 40.21196 | -3.41223 | 4934 ft | 247 kts | 32° |
| 2026-05-08 08:23 | 40.22685 | -3.40128 | 4600 ft | 244 kts | 29° |
| 2026-05-08 08:23 | 40.24178 | -3.39089 | 4266 ft | 242 kts | 22° |
| 2026-05-08 08:23 | 40.25779 | -3.38544 | 4057 ft | 234 kts | 5° |
| 2026-05-08 08:24 | 40.27349 | -3.38613 | 4038 ft | 219 kts | 352° |
| 2026-05-08 08:24 | 40.28850 | -3.38884 | 4041 ft | 217 kts | 352° |
| 2026-05-08 08:24 | 40.30305 | -3.39357 | 4042 ft | 216 kts | 334° |
| 2026-05-08 08:24 | 40.31518 | -3.40424 | 4040 ft | 204 kts | 322° |
| 2026-05-08 08:25 | 40.32621 | -3.41540 | 4040 ft | 198 kts | 322° |
| 2026-05-08 08:25 | 40.33707 | -3.42636 | 4041 ft | 196 kts | 322° |
| 2026-05-08 08:25 | 40.34781 | -3.43722 | 4042 ft | 195 kts | 322° |
| 2026-05-08 08:25 | 40.35850 | -3.44801 | 4053 ft | 190 kts | 322° |
| 2026-05-08 08:26 | 40.36847 | -3.45809 | 4048 ft | 173 kts | 322° |
| 2026-05-08 08:26 | 40.37755 | -3.46727 | 3972 ft | 158 kts | 322° |
| 2026-05-08 08:26 | 40.38607 | -3.47588 | 3829 ft | 152 kts | 322° |
| 2026-05-08 08:26 | 40.39436 | -3.48427 | 3643 ft | 149 kts | 322° |
| 2026-05-08 08:27 | 40.40255 | -3.49256 | 3454 ft | 148 kts | 322° |
| 2026-05-08 08:27 | 40.41068 | -3.50078 | 3260 ft | 147 kts | 322° |
| 2026-05-08 08:27 | 40.41877 | -3.50897 | 3063 ft | 147 kts | 322° |
| 2026-05-08 08:27 | 40.42683 | -3.51714 | 2873 ft | 146 kts | 322° |
| 2026-05-08 08:28 | 40.43488 | -3.52529 | 2678 ft | 146 kts | 322° |
| 2026-05-08 08:28 | 40.44289 | -3.53341 | 2498 ft | 146 kts | 322° |
| 2026-05-08 08:28 | 40.45089 | -3.54154 | 2296 ft | 145 kts | 322° |
| 2026-05-08 08:28 | 40.45885 | -3.54963 | 2087 ft | 145 kts | 322° |
| 2026-05-08 08:29 | 40.46676 | -3.55763 | 1960 ft | 137 kts | 323° |
| 2026-05-08 08:29 | 40.47196 | -3.56295 | 1985 ft | 52 kts | 320° |
| 2026-05-08 08:29 | 40.47334 | -3.56429 | 1988 ft | 32 kts | 330° |
| 2026-05-08 08:29 | 40.47470 | -3.56604 | 1993 ft | 26 kts | 306° |
| 2026-05-08 08:30 | 40.47558 | -3.56799 | 1994 ft | 23 kts | 298° |
| 2026-05-08 08:30 | 40.47634 | -3.56993 | 1995 ft | 24 kts | 291° |
| 2026-05-08 08:30 | 40.47776 | -3.57265 | 2001 ft | 18 kts | 321° |
| 2026-05-08 08:31 | 40.47875 | -3.57367 | 2005 ft | 18 kts | 322° |
| 2026-05-08 08:31 | 40.47979 | -3.57476 | 2003 ft | 21 kts | 321° |
| 2026-05-08 08:31 | 40.48101 | -3.57605 | 1999 ft | 24 kts | 321° |
| 2026-05-08 08:31 | 40.48245 | -3.57743 | 1995 ft | 27 kts | 323° |
| 2026-05-08 08:32 | 40.48389 | -3.57879 | 1991 ft | 24 kts | 325° |
| 2026-05-08 08:32 | 40.48510 | -3.57980 | 1999 ft | 19 kts | 326° |
| 2026-05-08 08:32 | 40.48572 | -3.58052 | 2003 ft | 17 kts | 304° |
| 2026-05-08 08:32 | 40.48596 | -3.58233 | 2007 ft | 14 kts | 272° |
| 2026-05-08 08:33 | 40.48598 | -3.58315 | 2010 ft | 12 kts | 270° |
| 2026-05-08 08:33 | 40.48597 | -3.58464 | 2014 ft | 27 kts | 270° |
| 2026-05-08 08:33 | 40.48598 | -3.58718 | 2025 ft | 23 kts | 271° |
| 2026-05-08 08:33 | 40.48686 | -3.58808 | 2030 ft | 19 kts | 360° |
| 2026-05-08 08:34 | 40.48824 | -3.58809 | 2022 ft | 21 kts | 359° |
| 2026-05-08 08:34 | 40.48976 | -3.58811 | 2022 ft | 22 kts | 359° |
| 2026-05-08 08:34 | 40.49112 | -3.58825 | 2029 ft | 14 kts | 322° |
| 2026-05-08 08:34 | 40.49121 | -3.58939 | 2022 ft | 9 kts | 270° |
| 2026-05-08 08:35 | 40.49120 | -3.58973 | 2025 ft | 0 kts | 268° |